Abel Santa Maria, Cuba

12:42 AM CDT on July 24, 2017 (GMT -0400)
Avenida Rancho Boyeros | | Change Station

Elev 206 ft 22.99 °N, 82.41 °W | Updated 8 minutes ago

Partly Cloudy
Partly Cloudy
71.8 °F
Feels Like 72 °F
N
1.2
Wind Variable Wind from West
Gusts 3.7 mph

Today
High -- | Low -- °F
--% Chance of Precip.
Yesterday
High -- | Low -- °F
Precip. -- in
Pressure 30.04 in
Visibility 5.6 miles
Clouds Few 4000 ft
Heat Index 72 °F
Dew Point 65 °F
Humidity 79%
Rainfall 0.00 in
Snow Depth Not available.
6:57 AM 8:14 PM
New Moon, 1% visible
METAR MUHA 240355Z 09007KT 030V120 9000 FEW040 27/23 Q1017
Pressure 30.04 in
Visibility 5.6 miles
Clouds Few 4000 ft
Heat Index 72 °F
Dew Point 65 °F
Humidity 79%
Rainfall 0.00 in
Snow Depth Not available.
6:57 AM 8:14 PM
New Moon, 1% visible
METAR MUHA 240355Z 09007KT 030V120 9000 FEW040 27/23 Q1017

Get Severe Weather Alerts

Thanks for signing up!

Be on the lookout for a verification email in your inbox.

You'll start receiving the daily forecast at 6 AM.

×

10-Day Weather Forecast

No radar image for this location.
×

Almanac

Astronomy

Jul. 24, 2017 Rise Set
Actual Time
Civil Twilight
Nautical Twilight
Astronomical Twilight
Moon
Length of Visible Light
Length of Day
Tomorrow will be .
, % of the Moon is Illuminated

Today's Extremes

Country Highs Country Lows

Community

WunderPhotos

Category 6

Welcome to Category 6. This is the collective home for Weather Underground's featured writeups by Dr. Jeff Masters (right), Bob Henson (left), Chris Burt, and other regular contributors.

Nearby

Air Quality

  Air Quality AQ Index Pollutant
Not available.

Snow Depth

Station Depth Elevation

Earthquake Activity

City Distance Mag. Time & Date
Minimum magnitude displayed is 2.5.

Coastal Water Temperatures

Place Temperature

Stations

Nearby Weather Stations

Station Location Temp. Windchill Dew Point Humidity Wind Precip. Elev Updated Type